Terminal Aerodrome Forecast
Issued by NWS

Home | Current Version | Previous Version | Text Only | Print | Product List | Glossary On
Versions: 1 2 3 4 5 6 7 8 9 10 11 12 13
000
FTAK31 PAJN 251742
TAFAGY
TAF
PAGY 251742Z 2518/2618 21005KT P6SM SCT050 BKN100
     FM252100 21015KT P6SM SCT050 BKN100
     FM260000 21015KT P6SM VCSH BKN050 OVC100
     FM260900 21008KT P6SM SCT050 BKN100
      AMD LTD TO CLD VIS AND WIND=

USA.gov is the U.S. government's official web portal to all federal, state and local government web resources and services.